sensor_id;sensor_type;location;lat;lon;timestamp;pressure;altitude;pressure_sealevel;temperature;humidity
49689;BME280;70518;51.400;7.428;2024-02-26T00:00:09;156928.28;;;11.50;55.62
49689;BME280;70518;51.400;7.428;2024-02-26T00:02:35;156932.19;;;11.52;55.74
49689;BME280;70518;51.400;7.428;2024-02-26T00:05:03;156945.06;;;11.57;55.47
49689;BME280;70518;51.400;7.428;2024-02-26T00:07:29;156934.75;;;11.53;55.71
49689;BME280;70518;51.400;7.428;2024-02-26T00:09:54;156929.59;;;11.51;55.70
49689;BME280;70518;51.400;7.428;2024-02-26T00:12:19;156927.00;;;11.50;55.42
49689;BME280;70518;51.400;7.428;2024-02-26T00:14:44;156923.16;;;11.48;55.83
49689;BME280;70518;51.400;7.428;2024-02-26T00:17:12;156936.03;;;11.53;55.63
49689;BME280;70518;51.400;7.428;2024-02-26T00:19:38;156946.38;;;11.57;55.75
49689;BME280;70518;51.400;7.428;2024-02-26T00:22:03;156951.53;;;11.59;56.08
49689;BME280;70518;51.400;7.428;2024-02-26T00:24:28;156950.22;;;11.59;55.92
49689;BME280;70518;51.400;7.428;2024-02-26T00:26:54;156945.06;;;11.57;55.45
49689;BME280;70518;51.400;7.428;2024-02-26T00:29:19;156950.22;;;11.59;55.41
49689;BME280;70518;51.400;7.428;2024-02-26T00:31:45;156957.97;;;11.62;55.38
49689;BME280;70518;51.400;7.428;2024-02-26T00:34:10;156965.72;;;11.65;55.45
49689;BME280;70518;51.400;7.428;2024-02-26T00:36:35;156969.59;;;11.66;55.39
49689;BME280;70518;51.400;7.428;2024-02-26T00:39:00;156952.81;;;11.60;55.41
49689;BME280;70518;51.400;7.428;2024-02-26T00:41:25;156952.81;;;11.60;55.39
49689;BME280;70518;51.400;7.428;2024-02-26T00:43:50;156954.13;;;11.60;55.38
49689;BME280;70518;51.400;7.428;2024-02-26T00:46:16;156943.78;;;11.56;55.49
49689;BME280;70518;51.400;7.428;2024-02-26T00:48:43;156951.53;;;11.59;55.53
49689;BME280;70518;51.400;7.428;2024-02-26T00:51:08;156946.38;;;11.57;55.80
49689;BME280;70518;51.400;7.428;2024-02-26T00:53:33;156943.78;;;11.56;55.88
49689;BME280;70518;51.400;7.428;2024-02-26T00:55:59;156941.19;;;11.55;55.58
49689;BME280;70518;51.400;7.428;2024-02-26T00:58:25;156955.41;;;11.61;54.97
49689;BME280;70518;51.400;7.428;2024-02-26T01:00:50;156947.69;;;11.58;55.27
49689;BME280;70518;51.400;7.428;2024-02-26T01:03:15;156950.22;;;11.59;55.24
49689;BME280;70518;51.400;7.428;2024-02-26T01:05:40;156957.97;;;11.62;55.33
49689;BME280;70518;51.400;7.428;2024-02-26T01:08:05;156939.94;;;11.55;55.47
49689;BME280;70518;51.400;7.428;2024-02-26T01:10:31;156921.84;;;11.48;55.85
49689;BME280;70518;51.400;7.428;2024-02-26T01:12:56;156906.34;;;11.42;55.98
49689;BME280;70518;51.400;7.428;2024-02-26T01:15:21;156907.66;;;11.42;55.83
49689;BME280;70518;51.400;7.428;2024-02-26T01:17:49;156917.94;;;11.46;55.66
49689;BME280;70518;51.400;7.428;2024-02-26T01:20:14;156933.44;;;11.52;55.79
49689;BME280;70518;51.400;7.428;2024-02-26T01:22:39;156932.19;;;11.52;55.59
49689;BME280;70518;51.400;7.428;2024-02-26T01:25:05;156942.47;;;11.56;55.65
49689;BME280;70518;51.400;7.428;2024-02-26T01:27:31;156936.03;;;11.53;55.73
49689;BME280;70518;51.400;7.428;2024-02-26T01:29:56;156938.63;;;11.54;55.77
49689;BME280;70518;51.400;7.428;2024-02-26T01:32:21;156933.44;;;11.52;55.63
49689;BME280;70518;51.400;7.428;2024-02-26T01:34:46;156939.94;;;11.55;55.63
49689;BME280;70518;51.400;7.428;2024-02-26T01:37:12;156945.06;;;11.57;55.69
49689;BME280;70518;51.400;7.428;2024-02-26T01:39:37;156952.81;;;11.60;55.57
49689;BME280;70518;51.400;7.428;2024-02-26T01:42:02;156960.56;;;11.63;55.30
49689;BME280;70518;51.400;7.428;2024-02-26T01:44:27;156951.53;;;11.59;55.50
49689;BME280;70518;51.400;7.428;2024-02-26T01:46:53;156947.69;;;11.58;55.46
49689;BME280;70518;51.400;7.428;2024-02-26T01:49:18;156948.94;;;11.58;55.52
49689;BME280;70518;51.400;7.428;2024-02-26T01:51:44;156946.38;;;11.57;55.71
49689;BME280;70518;51.400;7.428;2024-02-26T01:54:10;156937.34;;;11.54;55.75
49689;BME280;70518;51.400;7.428;2024-02-26T01:56:35;156930.88;;;11.51;55.89
49689;BME280;70518;51.400;7.428;2024-02-26T01:59:01;156941.19;;;11.55;55.71
49689;BME280;70518;51.400;7.428;2024-02-26T02:01:27;156938.63;;;11.54;55.87
49689;BME280;70518;51.400;7.428;2024-02-26T02:03:53;156946.38;;;11.57;55.67
49689;BME280;70518;51.400;7.428;2024-02-26T02:06:19;156954.13;;;11.60;55.62
49689;BME280;70518;51.400;7.428;2024-02-26T02:08:44;156939.94;;;11.55;55.75
49689;BME280;70518;51.400;7.428;2024-02-26T02:11:10;156959.25;;;11.62;56.11
49689;BME280;70518;51.400;7.428;2024-02-26T02:13:36;156979.94;;;11.70;55.51
49689;BME280;70518;51.400;7.428;2024-02-26T02:16:02;156963.13;;;11.64;55.56
49689;BME280;70518;51.400;7.428;2024-02-26T02:18:27;156954.13;;;11.60;56.12
49689;BME280;70518;51.400;7.428;2024-02-26T02:20:55;156954.13;;;11.60;55.63
49689;BME280;70518;51.400;7.428;2024-02-26T02:23:21;156957.97;;;11.62;55.96
49689;BME280;70518;51.400;7.428;2024-02-26T02:25:46;156946.38;;;11.57;56.11
49689;BME280;70518;51.400;7.428;2024-02-26T02:28:12;156964.41;;;11.64;55.85
49689;BME280;70518;51.400;7.428;2024-02-26T02:30:37;156959.25;;;11.62;55.83
49689;BME280;70518;51.400;7.428;2024-02-26T02:33:02;156952.81;;;11.60;56.12
49689;BME280;70518;51.400;7.428;2024-02-26T02:35:28;156950.22;;;11.59;56.35
49689;BME280;70518;51.400;7.428;2024-02-26T02:37:54;156938.63;;;11.54;56.26
49689;BME280;70518;51.400;7.428;2024-02-26T02:40:19;156952.81;;;11.60;56.25
49689;BME280;70518;51.400;7.428;2024-02-26T02:42:44;156947.69;;;11.58;56.20
49689;BME280;70518;51.400;7.428;2024-02-26T02:45:09;156943.78;;;11.56;56.50
49689;BME280;70518;51.400;7.428;2024-02-26T02:47:38;156947.69;;;11.58;56.24
49689;BME280;70518;51.400;7.428;2024-02-26T02:50:03;156957.97;;;11.62;56.46
49689;BME280;70518;51.400;7.428;2024-02-26T02:52:28;156960.56;;;11.63;56.56
49689;BME280;70518;51.400;7.428;2024-02-26T02:54:53;156961.88;;;11.63;56.58
49689;BME280;70518;51.400;7.428;2024-02-26T02:57:19;156959.25;;;11.62;56.37
49689;BME280;70518;51.400;7.428;2024-02-26T02:59:44;156964.41;;;11.64;56.44
49689;BME280;70518;51.400;7.428;2024-02-26T03:02:09;156956.66;;;11.61;56.84
49689;BME280;70518;51.400;7.428;2024-02-26T03:04:34;156976.06;;;11.69;56.96
49689;BME280;70518;51.400;7.428;2024-02-26T03:06:59;156985.16;;;11.73;57.03
49689;BME280;70518;51.400;7.428;2024-02-26T03:09:25;156977.41;;;11.69;57.63
49689;BME280;70518;51.400;7.428;2024-02-26T03:11:50;156982.56;;;11.72;57.24
49689;BME280;70518;51.400;7.428;2024-02-26T03:14:15;156985.16;;;11.73;57.36
49689;BME280;70518;51.400;7.428;2024-02-26T03:16:41;156987.69;;;11.74;57.30
49689;BME280;70518;51.400;7.428;2024-02-26T03:19:06;156982.56;;;11.72;57.13
49689;BME280;70518;51.400;7.428;2024-02-26T03:21:31;156977.41;;;11.69;57.59
49689;BME280;70518;51.400;7.428;2024-02-26T03:23:57;156968.31;;;11.66;57.84
49689;BME280;70518;51.400;7.428;2024-02-26T03:26:22;156959.25;;;11.62;58.14
49689;BME280;70518;51.400;7.428;2024-02-26T03:28:47;156964.41;;;11.64;57.90
49689;BME280;70518;51.400;7.428;2024-02-26T03:31:13;156956.66;;;11.61;59.13
49689;BME280;70518;51.400;7.428;2024-02-26T03:33:38;156950.22;;;11.59;60.32
49689;BME280;70518;51.400;7.428;2024-02-26T03:36:03;156928.28;;;11.50;60.40
49689;BME280;70518;51.400;7.428;2024-02-26T03:38:29;156856.06;;;11.22;62.08
49689;BME280;70518;51.400;7.428;2024-02-26T03:40:54;156822.50;;;11.09;62.21
49689;BME280;70518;51.400;7.428;2024-02-26T03:43:19;156834.06;;;11.13;62.35
49689;BME280;70518;51.400;7.428;2024-02-26T03:45:44;156828.94;;;11.11;63.04
49689;BME280;70518;51.400;7.428;2024-02-26T03:48:09;156826.38;;;11.10;62.52
49689;BME280;70518;51.400;7.428;2024-02-26T03:50:35;156887.03;;;11.34;61.54
49689;BME280;70518;51.400;7.428;2024-02-26T03:53:00;156881.81;;;11.32;62.73
49689;BME280;70518;51.400;7.428;2024-02-26T03:55:25;156880.53;;;11.32;62.89
49689;BME280;70518;51.400;7.428;2024-02-26T03:57:53;156865.03;;;11.26;63.73
49689;BME280;70518;51.400;7.428;2024-02-26T04:00:18;156877.97;;;11.31;63.72
49689;BME280;70518;51.400;7.428;2024-02-26T04:02:44;156890.88;;;11.36;64.15
49689;BME280;70518;51.400;7.428;2024-02-26T04:05:10;156883.13;;;11.33;64.44
49689;BME280;70518;51.400;7.428;2024-02-26T04:07:35;156876.69;;;11.30;64.81
49689;BME280;70518;51.400;7.428;2024-02-26T04:10:00;156883.13;;;11.33;62.53
49689;BME280;70518;51.400;7.428;2024-02-26T04:12:28;156879.28;;;11.31;62.45
49689;BME280;70518;51.400;7.428;2024-02-26T04:14:53;156881.81;;;11.32;63.20
49689;BME280;70518;51.400;7.428;2024-02-26T04:17:19;156901.22;;;11.40;63.39
49689;BME280;70518;51.400;7.428;2024-02-26T04:19:44;156887.03;;;11.34;64.23
49689;BME280;70518;51.400;7.428;2024-02-26T04:22:09;156887.03;;;11.34;65.37
49689;BME280;70518;51.400;7.428;2024-02-26T04:24:35;156879.28;;;11.31;65.63
49689;BME280;70518;51.400;7.428;2024-02-26T04:27:01;156877.97;;;11.31;64.66
49689;BME280;70518;51.400;7.428;2024-02-26T04:29:26;156881.81;;;11.32;65.21
49689;BME280;70518;51.400;7.428;2024-02-26T04:31:51;156865.03;;;11.26;65.83
49689;BME280;70518;51.400;7.428;2024-02-26T04:34:16;156871.53;;;11.28;66.20
49689;BME280;70518;51.400;7.428;2024-02-26T04:36:41;156884.44;;;11.33;65.04
49689;BME280;70518;51.400;7.428;2024-02-26T04:39:07;156866.34;;;11.26;65.69
49689;BME280;70518;51.400;7.428;2024-02-26T04:41:32;156839.28;;;11.15;66.90
49689;BME280;70518;51.400;7.428;2024-02-26T04:43:57;156858.59;;;11.23;67.10
49689;BME280;70518;51.400;7.428;2024-02-26T04:46:23;156866.34;;;11.26;66.46
49689;BME280;70518;51.400;7.428;2024-02-26T04:48:48;156870.25;;;11.28;66.43
49689;BME280;70518;51.400;7.428;2024-02-26T04:51:13;156868.94;;;11.27;65.28
49689;BME280;70518;51.400;7.428;2024-02-26T04:53:38;156859.91;;;11.24;66.41
49689;BME280;70518;51.400;7.428;2024-02-26T04:56:04;156859.91;;;11.24;65.67
49689;BME280;70518;51.400;7.428;2024-02-26T04:58:29;156879.28;;;11.31;64.71
49689;BME280;70518;51.400;7.428;2024-02-26T05:00:54;156872.78;;;11.29;65.23
49689;BME280;70518;51.400;7.428;2024-02-26T05:03:20;156863.81;;;11.25;66.49
49689;BME280;70518;51.400;7.428;2024-02-26T05:05:46;156848.31;;;11.19;65.72
49689;BME280;70518;51.400;7.428;2024-02-26T05:08:11;156836.69;;;11.14;66.44
49689;BME280;70518;51.400;7.428;2024-02-26T05:10:39;156822.50;;;11.09;66.85
49689;BME280;70518;51.400;7.428;2024-02-26T05:13:06;156822.50;;;11.09;66.88
49689;BME280;70518;51.400;7.428;2024-02-26T05:15:31;156828.94;;;11.11;67.42
49689;BME280;70518;51.400;7.428;2024-02-26T05:17:57;156823.78;;;11.09;66.47
49689;BME280;70518;51.400;7.428;2024-02-26T05:20:22;156843.13;;;11.17;66.54
49689;BME280;70518;51.400;7.428;2024-02-26T05:22:47;156845.72;;;11.18;65.62
49689;BME280;70518;51.400;7.428;2024-02-26T05:25:16;156850.84;;;11.20;66.23
49689;BME280;70518;51.400;7.428;2024-02-26T05:27:43;156837.97;;;11.15;65.37
49689;BME280;70518;51.400;7.428;2024-02-26T05:30:08;156839.28;;;11.15;66.22
49689;BME280;70518;51.400;7.428;2024-02-26T05:32:33;156848.31;;;11.19;65.88
49689;BME280;70518;51.400;7.428;2024-02-26T05:34:59;156827.63;;;11.11;67.22
49689;BME280;70518;51.400;7.428;2024-02-26T05:37:24;156832.84;;;11.13;67.52
49689;BME280;70518;51.400;7.428;2024-02-26T05:39:49;156832.84;;;11.13;66.60
49689;BME280;70518;51.400;7.428;2024-02-26T05:42:14;156832.84;;;11.13;65.43
49689;BME280;70518;51.400;7.428;2024-02-26T05:44:40;156830.22;;;11.12;66.35
49689;BME280;70518;51.400;7.428;2024-02-26T05:47:05;156808.31;;;11.03;65.61
49689;BME280;70518;51.400;7.428;2024-02-26T05:49:30;156787.69;;;10.95;66.63
49689;BME280;70518;51.400;7.428;2024-02-26T05:51:55;156777.34;;;10.91;67.10
49689;BME280;70518;51.400;7.428;2024-02-26T05:54:21;156788.94;;;10.96;67.33
49689;BME280;70518;51.400;7.428;2024-02-26T05:56:46;156768.31;;;10.88;67.33
49689;BME280;70518;51.400;7.428;2024-02-26T05:59:11;156770.91;;;10.89;67.37
49689;BME280;70518;51.400;7.428;2024-02-26T06:01:36;156760.56;;;10.85;67.64
49689;BME280;70518;51.400;7.428;2024-02-26T06:04:02;156759.25;;;10.84;67.93
49689;BME280;70518;51.400;7.428;2024-02-26T06:06:27;156759.25;;;10.84;67.09
49689;BME280;70518;51.400;7.428;2024-02-26T06:08:52;156741.25;;;10.77;67.60
49689;BME280;70518;51.400;7.428;2024-02-26T06:11:17;156745.09;;;10.79;68.59
49689;BME280;70518;51.400;7.428;2024-02-26T06:13:43;156737.34;;;10.76;68.93
49689;BME280;70518;51.400;7.428;2024-02-26T06:16:08;156745.09;;;10.79;68.71
49689;BME280;70518;51.400;7.428;2024-02-26T06:18:33;156743.78;;;10.78;68.24
49689;BME280;70518;51.400;7.428;2024-02-26T06:20:59;156750.28;;;10.81;68.34
49689;BME280;70518;51.400;7.428;2024-02-26T06:23:24;156754.13;;;10.82;68.78
49689;BME280;70518;51.400;7.428;2024-02-26T06:25:49;156739.94;;;10.77;68.64
49689;BME280;70518;51.400;7.428;2024-02-26T06:28:15;156732.19;;;10.74;68.18
49689;BME280;70518;51.400;7.428;2024-02-26T06:30:40;156719.31;;;10.69;68.70
49689;BME280;70518;51.400;7.428;2024-02-26T06:33:05;156711.56;;;10.66;69.07
49689;BME280;70518;51.400;7.428;2024-02-26T06:35:31;156716.72;;;10.68;69.10
49689;BME280;70518;51.400;7.428;2024-02-26T06:37:56;156729.59;;;10.73;69.25
49689;BME280;70518;51.400;7.428;2024-02-26T06:40:22;156727.06;;;10.72;69.35
49689;BME280;70518;51.400;7.428;2024-02-26T06:42:47;156719.31;;;10.69;69.88
49689;BME280;70518;51.400;7.428;2024-02-26T06:45:12;156739.94;;;10.77;69.18
49689;BME280;70518;51.400;7.428;2024-02-26T06:47:37;156733.50;;;10.74;69.62
49689;BME280;70518;51.400;7.428;2024-02-26T06:50:03;156716.72;;;10.68;69.69
49689;BME280;70518;51.400;7.428;2024-02-26T06:52:28;156719.31;;;10.69;69.77
49689;BME280;70518;51.400;7.428;2024-02-26T06:54:53;156720.56;;;10.69;70.47
49689;BME280;70518;51.400;7.428;2024-02-26T06:57:19;156721.88;;;10.70;69.74
49689;BME280;70518;51.400;7.428;2024-02-26T06:59:44;156724.47;;;10.71;69.53
49689;BME280;70518;51.400;7.428;2024-02-26T07:02:12;156718.03;;;10.68;69.85
49689;BME280;70518;51.400;7.428;2024-02-26T07:04:37;156724.47;;;10.71;69.98
49689;BME280;70518;51.400;7.428;2024-02-26T07:07:02;156706.38;;;10.64;70.81
49689;BME280;70518;51.400;7.428;2024-02-26T07:09:27;156692.19;;;10.58;70.52
49689;BME280;70518;51.400;7.428;2024-02-26T07:11:52;156693.50;;;10.58;70.43
49689;BME280;70518;51.400;7.428;2024-02-26T07:14:18;156696.09;;;10.59;70.90
49689;BME280;70518;51.400;7.428;2024-02-26T07:16:43;156696.09;;;10.59;71.10
49689;BME280;70518;51.400;7.428;2024-02-26T07:19:08;156708.97;;;10.65;71.30
49689;BME280;70518;51.400;7.428;2024-02-26T07:21:33;156716.72;;;10.68;71.56
49689;BME280;70518;51.400;7.428;2024-02-26T07:23:59;156703.84;;;10.63;72.51
49689;BME280;70518;51.400;7.428;2024-02-26T07:26:24;156711.56;;;10.66;71.82
49689;BME280;70518;51.400;7.428;2024-02-26T07:28:51;156705.09;;;10.63;72.27
49689;BME280;70518;51.400;7.428;2024-02-26T07:31:17;156721.88;;;10.70;72.56
49689;BME280;70518;51.400;7.428;2024-02-26T07:33:42;156727.06;;;10.72;72.83
49689;BME280;70518;51.400;7.428;2024-02-26T07:36:07;156738.63;;;10.76;72.57
49689;BME280;70518;51.400;7.428;2024-02-26T07:38:32;156745.09;;;10.79;72.65
49689;BME280;70518;51.400;7.428;2024-02-26T07:40:58;156738.63;;;10.76;72.37
49689;BME280;70518;51.400;7.428;2024-02-26T07:43:23;156737.34;;;10.76;71.99
49689;BME280;70518;51.400;7.428;2024-02-26T07:45:48;156750.28;;;10.81;72.83
49689;BME280;70518;51.400;7.428;2024-02-26T07:48:13;156755.41;;;10.83;71.73
49689;BME280;70518;51.400;7.428;2024-02-26T07:50:39;156754.13;;;10.82;71.84
49689;BME280;70518;51.400;7.428;2024-02-26T07:53:05;156741.25;;;10.77;72.14
49689;BME280;70518;51.400;7.428;2024-02-26T07:55:30;156736.03;;;10.75;71.46
49689;BME280;70518;51.400;7.428;2024-02-26T07:57:56;156736.03;;;10.75;72.02
49689;BME280;70518;51.400;7.428;2024-02-26T08:00:21;156725.75;;;10.71;72.34
49689;BME280;70518;51.400;7.428;2024-02-26T08:02:46;156729.59;;;10.73;72.29
49689;BME280;70518;51.400;7.428;2024-02-26T08:05:12;156763.16;;;10.86;71.50
49689;BME280;70518;51.400;7.428;2024-02-26T08:07:37;156763.16;;;10.86;71.78
49689;BME280;70518;51.400;7.428;2024-02-26T08:10:02;156763.16;;;10.86;71.65
49689;BME280;70518;51.400;7.428;2024-02-26T08:12:28;156758.00;;;10.84;71.72
49689;BME280;70518;51.400;7.428;2024-02-26T08:14:53;156765.72;;;10.87;71.62
49689;BME280;70518;51.400;7.428;2024-02-26T08:17:18;156760.56;;;10.85;71.96
49689;BME280;70518;51.400;7.428;2024-02-26T08:19:43;156776.03;;;10.91;72.07
49689;BME280;70518;51.400;7.428;2024-02-26T08:22:08;156772.19;;;10.89;71.96
49689;BME280;70518;51.400;7.428;2024-02-26T08:24:35;156758.00;;;10.84;72.57
49689;BME280;70518;51.400;7.428;2024-02-26T08:27:00;156765.72;;;10.87;72.63
49689;BME280;70518;51.400;7.428;2024-02-26T08:29:25;156758.00;;;10.84;71.75
49689;BME280;70518;51.400;7.428;2024-02-26T08:31:51;156759.25;;;10.84;72.59
49689;BME280;70518;51.400;7.428;2024-02-26T08:34:16;156776.03;;;10.91;72.52
49689;BME280;70518;51.400;7.428;2024-02-26T08:36:41;156791.53;;;10.97;72.68
49689;BME280;70518;51.400;7.428;2024-02-26T08:39:08;156769.59;;;10.88;74.50
49689;BME280;70518;51.400;7.428;2024-02-26T08:41:34;156769.59;;;10.88;73.40
49689;BME280;70518;51.400;7.428;2024-02-26T08:43:59;156788.94;;;10.96;72.39
49689;BME280;70518;51.400;7.428;2024-02-26T08:46:24;156809.59;;;11.04;71.99
49689;BME280;70518;51.400;7.428;2024-02-26T08:48:49;156816.03;;;11.06;72.78
49689;BME280;70518;51.400;7.428;2024-02-26T08:51:14;156827.63;;;11.11;72.11
49689;BME280;70518;51.400;7.428;2024-02-26T08:53:40;156825.09;;;11.10;72.22
49689;BME280;70518;51.400;7.428;2024-02-26T08:56:05;156822.50;;;11.09;72.21
49689;BME280;70518;51.400;7.428;2024-02-26T08:58:30;156822.50;;;11.09;72.75
49689;BME280;70518;51.400;7.428;2024-02-26T09:00:55;156818.66;;;11.07;72.58
49689;BME280;70518;51.400;7.428;2024-02-26T09:03:21;156832.84;;;11.13;71.78
49689;BME280;70518;51.400;7.428;2024-02-26T09:05:46;156821.19;;;11.08;72.60
49689;BME280;70518;51.400;7.428;2024-02-26T09:08:11;156816.03;;;11.06;72.80
49689;BME280;70518;51.400;7.428;2024-02-26T09:10:38;156825.09;;;11.10;73.44
49689;BME280;70518;51.400;7.428;2024-02-26T09:13:03;156826.38;;;11.10;73.12
49689;BME280;70518;51.400;7.428;2024-02-26T09:15:28;156832.84;;;11.13;73.17
49689;BME280;70518;51.400;7.428;2024-02-26T09:17:53;156834.06;;;11.13;72.68
49689;BME280;70518;51.400;7.428;2024-02-26T09:20:19;156828.94;;;11.11;72.62
49689;BME280;70518;51.400;7.428;2024-02-26T09:22:45;156827.63;;;11.11;73.77
49689;BME280;70518;51.400;7.428;2024-02-26T09:25:10;156830.22;;;11.12;72.94
49689;BME280;70518;51.400;7.428;2024-02-26T09:27:36;156832.84;;;11.13;73.17
49689;BME280;70518;51.400;7.428;2024-02-26T09:30:01;156830.22;;;11.12;73.69
49689;BME280;70518;51.400;7.428;2024-02-26T09:32:26;156844.41;;;11.18;73.89
49689;BME280;70518;51.400;7.428;2024-02-26T09:34:51;156850.84;;;11.20;73.00
49689;BME280;70518;51.400;7.428;2024-02-26T09:37:16;156862.50;;;11.25;73.11
49689;BME280;70518;51.400;7.428;2024-02-26T09:39:42;156871.53;;;11.28;73.54
49689;BME280;70518;51.400;7.428;2024-02-26T09:42:07;156866.34;;;11.26;73.27
49689;BME280;70518;51.400;7.428;2024-02-26T09:44:35;156880.53;;;11.32;72.96
49689;BME280;70518;51.400;7.428;2024-02-26T09:47:03;156881.81;;;11.32;72.92
49689;BME280;70518;51.400;7.428;2024-02-26T09:49:30;156889.56;;;11.35;72.98
49689;BME280;70518;51.400;7.428;2024-02-26T09:51:55;156876.69;;;11.30;73.89
49689;BME280;70518;51.400;7.428;2024-02-26T09:54:21;156881.81;;;11.32;73.36
49689;BME280;70518;51.400;7.428;2024-02-26T09:56:47;156887.03;;;11.34;73.08
49689;BME280;70518;51.400;7.428;2024-02-26T09:59:15;156910.22;;;11.43;72.78
49689;BME280;70518;51.400;7.428;2024-02-26T10:01:42;156938.63;;;11.54;72.63
49689;BME280;70518;51.400;7.428;2024-02-26T10:04:07;156939.94;;;11.55;72.68
49689;BME280;70518;51.400;7.428;2024-02-26T10:06:33;156946.38;;;11.57;72.62
49689;BME280;70518;51.400;7.428;2024-02-26T10:08:59;156963.13;;;11.64;72.68
49689;BME280;70518;51.400;7.428;2024-02-26T10:11:25;156956.66;;;11.61;73.84
49689;BME280;70518;51.400;7.428;2024-02-26T10:13:50;156959.25;;;11.62;73.41
49689;BME280;70518;51.400;7.428;2024-02-26T10:16:16;156972.16;;;11.67;73.00
49689;BME280;70518;51.400;7.428;2024-02-26T10:19:14;156977.41;;;11.69;72.83
49689;BME280;70518;51.400;7.428;2024-02-26T10:21:33;156994.16;;;11.76;72.62
49689;BME280;70518;51.400;7.428;2024-02-26T10:23:58;156978.66;;;11.70;73.70
49689;BME280;70518;51.400;7.428;2024-02-26T10:26:23;156978.66;;;11.70;73.44
49689;BME280;70518;51.400;7.428;2024-02-26T10:28:48;156989.00;;;11.74;73.02
49689;BME280;70518;51.400;7.428;2024-02-26T10:31:14;157003.19;;;11.80;73.21
49689;BME280;70518;51.400;7.428;2024-02-26T10:33:40;156994.16;;;11.76;73.22
49689;BME280;70518;51.400;7.428;2024-02-26T10:36:06;157005.78;;;11.81;72.90
49689;BME280;70518;51.400;7.428;2024-02-26T10:38:32;157005.78;;;11.81;73.55
49689;BME280;70518;51.400;7.428;2024-02-26T10:40:58;157021.28;;;11.87;72.85
49689;BME280;70518;51.400;7.428;2024-02-26T10:43:24;157013.53;;;11.84;72.90
49689;BME280;70518;51.400;7.428;2024-02-26T10:45:50;157018.69;;;11.86;73.10
49689;BME280;70518;51.400;7.428;2024-02-26T10:48:15;157001.88;;;11.79;72.80
49689;BME280;70518;51.400;7.428;2024-02-26T10:50:41;157007.09;;;11.81;73.22
49689;BME280;70518;51.400;7.428;2024-02-26T10:53:10;156999.34;;;11.78;73.35
49689;BME280;70518;51.400;7.428;2024-02-26T10:55:37;157005.78;;;11.81;73.45
49689;BME280;70518;51.400;7.428;2024-02-26T10:58:03;157012.22;;;11.83;73.41
49689;BME280;70518;51.400;7.428;2024-02-26T11:00:29;157019.97;;;11.86;73.22
49689;BME280;70518;51.400;7.428;2024-02-26T11:02:56;157023.88;;;11.88;74.33
49689;BME280;70518;51.400;7.428;2024-02-26T11:05:23;157026.44;;;11.89;73.74
49689;BME280;70518;51.400;7.428;2024-02-26T11:07:49;157022.56;;;11.87;73.53
49689;BME280;70518;51.400;7.428;2024-02-26T11:10:15;157038.06;;;11.93;73.70
49689;BME280;70518;51.400;7.428;2024-02-26T11:12:40;157026.44;;;11.89;73.91
49689;BME280;70518;51.400;7.428;2024-02-26T11:15:06;157034.16;;;11.92;73.59
49689;BME280;70518;51.400;7.428;2024-02-26T11:17:32;157040.63;;;11.94;74.12
49689;BME280;70518;51.400;7.428;2024-02-26T11:19:59;157050.97;;;11.98;73.31
49689;BME280;70518;51.400;7.428;2024-02-26T11:22:28;157075.50;;;12.08;73.17
49689;BME280;70518;51.400;7.428;2024-02-26T11:24:54;157083.25;;;12.11;73.21
49689;BME280;70518;51.400;7.428;2024-02-26T11:27:21;157093.53;;;12.15;73.36
49689;BME280;70518;51.400;7.428;2024-02-26T11:29:49;157102.59;;;12.18;73.70
49689;BME280;70518;51.400;7.428;2024-02-26T11:32:15;157124.53;;;12.27;74.22
49689;BME280;70518;51.400;7.428;2024-02-26T11:34:41;157129.72;;;12.29;74.10
49689;BME280;70518;51.400;7.428;2024-02-26T11:37:13;157140.03;;;12.33;73.83
49689;BME280;70518;51.400;7.428;2024-02-26T11:39:39;157146.47;;;12.36;73.83
49689;BME280;70518;51.400;7.428;2024-02-26T11:42:06;157154.22;;;12.39;73.72
49689;BME280;70518;51.400;7.428;2024-02-26T11:44:31;157151.69;;;12.38;73.59
49689;BME280;70518;51.400;7.428;2024-02-26T11:46:56;157152.97;;;12.38;73.42
49689;BME280;70518;51.400;7.428;2024-02-26T11:51:54;157163.28;;;12.42;73.86
49689;BME280;70518;51.400;7.428;2024-02-26T11:57:03;157186.53;;;12.51;73.91
49689;BME280;70518;51.400;7.428;2024-02-26T11:59:37;157195.56;;;12.55;73.85
49689;BME280;70518;51.400;7.428;2024-02-26T12:02:03;157216.22;;;12.63;73.16
49689;BME280;70518;51.400;7.428;2024-02-26T12:04:29;157236.88;;;12.71;73.05
49689;BME280;70518;51.400;7.428;2024-02-26T12:06:56;157245.91;;;12.74;73.42
49689;BME280;70518;51.400;7.428;2024-02-26T12:09:31;157257.56;;;12.79;73.66
49689;BME280;70518;51.400;7.428;2024-02-26T12:11:57;157251.13;;;12.76;73.25
49689;BME280;70518;51.400;7.428;2024-02-26T12:14:25;157256.28;;;12.78;72.43
49689;BME280;70518;51.400;7.428;2024-02-26T12:16:50;157273.06;;;12.85;71.94
49689;BME280;70518;51.400;7.428;2024-02-26T12:19:16;157297.56;;;12.95;72.12
49689;BME280;70518;51.400;7.428;2024-02-26T12:21:41;157298.88;;;12.95;71.82
49689;BME280;70518;51.400;7.428;2024-02-26T12:24:13;157306.63;;;12.98;71.90
49689;BME280;70518;51.400;7.428;2024-02-26T12:26:39;157328.59;;;13.07;70.93
49689;BME280;70518;51.400;7.428;2024-02-26T12:29:05;157345.44;;;13.13;71.55
49689;BME280;70518;51.400;7.428;2024-02-26T12:31:31;157331.22;;;13.08;71.97
49689;BME280;70518;51.400;7.428;2024-02-26T12:33:56;157344.13;;;13.13;71.74
49689;BME280;70518;51.400;7.428;2024-02-26T12:36:21;157349.34;;;13.15;70.88
49689;BME280;70518;51.400;7.428;2024-02-26T12:38:48;157359.63;;;13.19;70.77
49689;BME280;70518;51.400;7.428;2024-02-26T12:41:13;157363.53;;;13.20;70.66
49689;BME280;70518;51.400;7.428;2024-02-26T12:43:39;157370.00;;;13.23;70.15
49689;BME280;70518;51.400;7.428;2024-02-26T12:46:04;157375.13;;;13.25;69.76